createdAt,value
2022-09-26T00:01:20.278Z,100634.28
2022-09-26T00:03:44.015Z,100631.28
2022-09-26T00:06:08.597Z,100629.09
2022-09-26T00:08:31.917Z,100624.22
2022-09-26T00:10:57.586Z,100626.78
2022-09-26T00:13:20.819Z,100624.94
2022-09-26T00:15:43.965Z,100618.16
2022-09-26T00:18:09.092Z,100616.16
2022-09-26T00:20:32.333Z,100605.09
2022-09-26T00:22:55.473Z,100604.72
2022-09-26T00:25:19.507Z,100615.72
2022-09-26T00:27:42.668Z,100605.19
2022-09-26T00:30:06.994Z,100613.84
2022-09-26T00:32:30.182Z,100608.44
2022-09-26T00:34:54.734Z,100605.84
2022-09-26T00:37:17.717Z,100594.41
2022-09-26T00:39:41.008Z,100598.03
2022-09-26T00:42:04.247Z,100597.72
2022-09-26T00:44:43.172Z,100603.06
2022-09-26T00:47:06.431Z,100603.59
2022-09-26T00:49:31.172Z,100600.47
2022-09-26T00:52:01.114Z,100605.66
2022-09-26T00:54:24.300Z,100608.94
2022-09-26T00:56:48.649Z,100611.34
2022-09-26T00:59:14.369Z,100612.59
2022-09-26T01:01:37.701Z,100601.75
2022-09-26T01:04:01.053Z,100609.44
2022-09-26T01:06:24.269Z,100596.84
2022-09-26T01:08:50.270Z,100598.16
2022-09-26T01:11:17.261Z,100597.53
2022-09-26T01:13:40.776Z,100593.00
2022-09-26T01:16:04.082Z,100594.19
2022-09-26T01:18:27.610Z,100595.09
2022-09-26T01:20:53.635Z,100584.53
2022-09-26T01:23:43.582Z,100586.81
2022-09-26T01:26:24.941Z,100581.81
2022-09-26T01:29:02.654Z,100593.66
2022-09-26T01:31:29.747Z,100586.28
2022-09-26T01:33:58.020Z,100576.06
2022-09-26T01:36:54.886Z,100577.25
2022-09-26T01:39:36.025Z,100575.06
2022-09-26T01:42:01.069Z,100577.59
2022-09-26T01:44:29.621Z,100567.31
2022-09-26T01:46:56.629Z,100575.84
2022-09-26T01:49:22.137Z,100572.44
2022-09-26T01:51:47.253Z,100574.41
2022-09-26T01:54:12.623Z,100570.91
2022-09-26T01:56:38.202Z,100584.00
2022-09-26T01:59:05.377Z,100572.72
2022-09-26T02:01:29.326Z,100572.38
2022-09-26T02:03:55.886Z,100568.13
2022-09-26T02:06:24.395Z,100569.25
2022-09-26T02:08:49.938Z,100567.16
2022-09-26T02:11:15.284Z,100568.38
2022-09-26T02:13:40.013Z,100566.97
2022-09-26T02:16:06.127Z,100565.75
2022-09-26T02:18:30.815Z,100564.94
2022-09-26T02:20:57.959Z,100574.59
2022-09-26T02:23:21.165Z,100555.59
2022-09-26T02:25:44.291Z,100554.94
2022-09-26T02:28:07.521Z,100563.25
2022-09-26T02:30:30.807Z,100553.78
2022-09-26T02:32:55.069Z,100550.16
2022-09-26T02:35:37.038Z,100554.41
2022-09-26T02:38:02.306Z,100545.16
2022-09-26T02:40:31.809Z,100552.84
2022-09-26T02:42:58.545Z,100552.38
2022-09-26T02:45:26.633Z,100555.03
2022-09-26T02:48:15.015Z,100547.56
2022-09-26T02:50:42.730Z,100553.03
2022-09-26T02:53:12.697Z,100542.72
2022-09-26T02:55:48.322Z,100551.19
2022-09-26T02:58:15.085Z,100558.34
2022-09-26T03:00:46.104Z,100557.91
2022-09-26T03:03:14.043Z,100554.41
2022-09-26T03:05:37.278Z,100543.44
2022-09-26T03:08:02.320Z,100542.94
2022-09-26T03:10:27.614Z,100538.09
2022-09-26T03:12:50.962Z,100538.72
2022-09-26T03:15:14.722Z,100535.66
2022-09-26T03:17:38.916Z,100525.88
2022-09-26T03:20:04.705Z,100515.00
2022-09-26T03:22:29.121Z,100522.88
2022-09-26T03:24:52.474Z,100520.75
2022-09-26T03:27:17.404Z,100518.75
2022-09-26T03:29:42.057Z,100525.78
2022-09-26T03:32:11.115Z,100520.72
2022-09-26T03:34:34.653Z,100533.97
2022-09-26T03:36:57.843Z,100522.59
2022-09-26T03:39:21.197Z,100519.19
2022-09-26T03:41:58.269Z,100522.16
2022-09-26T03:44:24.453Z,100525.22
2022-09-26T03:47:18.226Z,100517.63
2022-09-26T03:49:45.551Z,100516.50
2022-09-26T03:52:10.954Z,100515.22
2022-09-26T03:54:34.712Z,100511.88
2022-09-26T03:56:58.387Z,100519.38
2022-09-26T03:59:21.700Z,100512.22
2022-09-26T04:01:48.675Z,100510.94
2022-09-26T04:04:12.062Z,100505.94
2022-09-26T04:06:35.938Z,100504.25
2022-09-26T04:08:59.157Z,100505.66
2022-09-26T04:11:24.696Z,100502.72
2022-09-26T04:13:53.234Z,100501.06
2022-09-26T04:16:20.961Z,100495.97
2022-09-26T04:18:51.300Z,100491.63
2022-09-26T04:21:14.628Z,100500.75
2022-09-26T04:23:38.753Z,100489.94
2022-09-26T04:26:05.222Z,100492.72
2022-09-26T04:28:28.667Z,100497.94
2022-09-26T04:30:51.847Z,100502.53
2022-09-26T04:33:16.143Z,100503.19
2022-09-26T04:35:44.649Z,100509.78
2022-09-26T04:38:08.900Z,100509.38
2022-09-26T04:40:32.636Z,100514.38
2022-09-26T04:43:00.655Z,100514.59
2022-09-26T04:45:23.994Z,100507.66
2022-09-26T04:47:47.296Z,100502.59
2022-09-26T04:50:19.614Z,100507.06
2022-09-26T04:53:01.613Z,100502.78
2022-09-26T04:55:25.364Z,100502.53
2022-09-26T04:57:50.247Z,100497.84
2022-09-26T05:00:14.875Z,100510.94
2022-09-26T05:02:37.896Z,100501.75
2022-09-26T05:05:01.608Z,100501.00
2022-09-26T05:07:25.575Z,100501.63
2022-09-26T05:09:50.209Z,100502.78
2022-09-26T05:12:15.465Z,100504.84
2022-09-26T05:14:44.732Z,100490.47
2022-09-26T05:17:09.439Z,100494.84
2022-09-26T05:19:32.975Z,100489.75
2022-09-26T05:22:11.360Z,100486.47
2022-09-26T05:24:57.141Z,100482.47
2022-09-26T05:27:24.287Z,100489.88
2022-09-26T05:29:47.503Z,100491.94
2022-09-26T05:32:13.252Z,100477.34
2022-09-26T05:34:36.503Z,100481.38
2022-09-26T05:37:01.947Z,100475.69
2022-09-26T05:39:42.852Z,100483.44
2022-09-26T05:42:07.938Z,100491.09
2022-09-26T05:44:32.751Z,100490.72
2022-09-26T05:46:57.546Z,100481.47
2022-09-26T05:49:22.280Z,100491.06
2022-09-26T05:51:46.610Z,100500.78
2022-09-26T05:54:13.006Z,100498.72
2022-09-26T05:56:37.859Z,100494.22
2022-09-26T05:59:23.673Z,100491.81
2022-09-26T06:02:20.914Z,100499.19
2022-09-26T06:05:03.695Z,100493.59
2022-09-26T06:07:45.724Z,100496.03
2022-09-26T06:10:21.286Z,100494.44
2022-09-26T06:12:51.275Z,100499.19
2022-09-26T06:15:15.226Z,100494.84
2022-09-26T06:17:40.057Z,100501.75
2022-09-26T06:20:03.410Z,100500.53
2022-09-26T06:22:27.458Z,100496.56
2022-09-26T06:24:50.954Z,100494.25
2022-09-26T06:27:14.164Z,100488.50
2022-09-26T06:29:37.820Z,100489.00
2022-09-26T06:32:01.260Z,100496.50
2022-09-26T06:34:49.064Z,100489.34
2022-09-26T06:37:30.914Z,100485.47
2022-09-26T06:39:58.574Z,100493.97
2022-09-26T06:42:22.605Z,100484.09
2022-09-26T06:45:07.571Z,100492.88
2022-09-26T06:47:51.086Z,100482.91
2022-09-26T06:50:32.075Z,100489.81
2022-09-26T06:52:55.890Z,100490.53
2022-09-26T06:55:22.533Z,100477.91
2022-09-26T06:57:45.778Z,100475.94
2022-09-26T07:00:10.690Z,100475.81
2022-09-26T07:02:52.580Z,100483.69
2022-09-26T07:05:23.673Z,100489.78
2022-09-26T07:07:50.126Z,100491.13
2022-09-26T07:10:22.089Z,100476.78
2022-09-26T07:12:59.935Z,100479.19
2022-09-26T07:15:23.280Z,100466.41
2022-09-26T07:17:48.099Z,100471.66
2022-09-26T07:20:35.137Z,100464.34
2022-09-26T07:23:08.631Z,100456.19
2022-09-26T07:25:32.247Z,100466.75
2022-09-26T07:27:56.998Z,100469.31
2022-09-26T07:30:30.614Z,100459.47
2022-09-26T07:33:01.144Z,100454.69
2022-09-26T07:35:38.925Z,100464.41
2022-09-26T07:38:02.269Z,100454.44
2022-09-26T07:40:27.337Z,100464.06
2022-09-26T07:43:09.569Z,100458.44
2022-09-26T07:45:52.984Z,100457.47
2022-09-26T07:48:33.582Z,100448.34
2022-09-26T07:51:15.175Z,100446.50
2022-09-26T07:53:42.469Z,100451.84
2022-09-26T07:56:34.554Z,100454.38
2022-09-26T07:59:15.173Z,100453.44
2022-09-26T08:01:52.181Z,100456.94
2022-09-26T08:04:30.707Z,100455.13
2022-09-26T08:06:54.205Z,100448.78
2022-09-26T08:09:17.425Z,100430.78
2022-09-26T08:12:01.486Z,100423.59
2022-09-26T08:14:42.742Z,100420.91
2022-09-26T08:17:15.414Z,100420.75
2022-09-26T08:19:38.732Z,100419.81
2022-09-26T08:22:01.925Z,100417.00
2022-09-26T08:24:25.806Z,100416.88
2022-09-26T08:27:22.748Z,100420.25
2022-09-26T08:29:49.522Z,100412.09
2022-09-26T08:32:12.729Z,100416.31
2022-09-26T08:34:36.574Z,100412.69
2022-09-26T08:37:17.978Z,100404.50
2022-09-26T08:40:04.588Z,100404.25
2022-09-26T08:43:12.562Z,100394.00
2022-09-26T08:46:15.545Z,100398.38
2022-09-26T08:48:53.754Z,100408.09
2022-09-26T08:51:28.247Z,100401.78
2022-09-26T08:53:54.903Z,100400.53
2022-09-26T08:56:19.998Z,100396.88
2022-09-26T08:58:45.653Z,100387.75
2022-09-26T09:01:13.424Z,100384.34
2022-09-26T09:04:03.379Z,100402.72
2022-09-26T09:06:27.320Z,100394.53
2022-09-26T09:08:51.826Z,100392.69
2022-09-26T09:11:31.301Z,100380.13
2022-09-26T09:14:04.677Z,100388.06
2022-09-26T09:16:53.470Z,100389.75
2022-09-26T09:19:46.877Z,100393.28
2022-09-26T09:22:32.407Z,100388.75
2022-09-26T09:25:03.289Z,100386.06
2022-09-26T09:28:01.295Z,100386.94
2022-09-26T09:30:26.123Z,100378.91
2022-09-26T09:32:54.393Z,100378.91
2022-09-26T09:35:33.863Z,100382.44
2022-09-26T09:38:06.720Z,100381.44
2022-09-26T09:40:38.284Z,100373.28
2022-09-26T09:43:03.937Z,100363.28
2022-09-26T09:45:31.543Z,100365.13
2022-09-26T09:47:54.712Z,100351.88
2022-09-26T09:50:23.221Z,100356.22
2022-09-26T09:52:51.258Z,100343.84
2022-09-26T09:55:21.342Z,100337.50
2022-09-26T09:57:52.977Z,100324.09
2022-09-26T10:00:16.967Z,100326.63
2022-09-26T10:03:06.266Z,100335.38
2022-09-26T10:05:41.707Z,100332.72
2022-09-26T10:08:11.840Z,100342.31
2022-09-26T10:11:01.053Z,100335.13
2022-09-26T10:13:43.509Z,100324.94
2022-09-26T10:16:25.147Z,100334.84
2022-09-26T10:19:03.586Z,100331.16
2022-09-26T10:21:32.798Z,100334.69
2022-09-26T10:23:57.165Z,100343.56
2022-09-26T10:26:39.436Z,100328.22
2022-09-26T10:29:07.709Z,100312.84
2022-09-26T10:31:41.411Z,100316.47
2022-09-26T10:34:23.601Z,100319.47
2022-09-26T10:36:46.842Z,100312.44
2022-09-26T10:39:35.929Z,100300.72
2022-09-26T10:42:01.998Z,100275.06
2022-09-26T10:44:27.030Z,100294.41
2022-09-26T10:47:14.971Z,100295.34
2022-09-26T10:49:59.398Z,100301.72
2022-09-26T10:52:42.230Z,100308.06
2022-09-26T10:55:06.627Z,100303.53
2022-09-26T10:57:33.597Z,100289.31
2022-09-26T10:59:59.495Z,100291.16
2022-09-26T11:02:23.962Z,100297.34
2022-09-26T11:05:19.873Z,100297.47
2022-09-26T11:08:14.209Z,100287.75
2022-09-26T11:11:11.324Z,100291.25
2022-09-26T11:13:40.097Z,100299.31
2022-09-26T11:16:09.750Z,100294.09
2022-09-26T11:18:38.899Z,100297.47
2022-09-26T11:21:11.245Z,100295.63
2022-09-26T11:23:51.974Z,100272.38
2022-09-26T11:26:18.236Z,100283.38
2022-09-26T11:28:42.306Z,100277.88
2022-09-26T11:31:37.013Z,100260.94
2022-09-26T11:34:26.760Z,100265.31
2022-09-26T11:37:17.014Z,100259.00
2022-09-26T11:39:51.553Z,100239.25
2022-09-26T11:42:21.490Z,100243.78
2022-09-26T11:44:51.859Z,100243.34
2022-09-26T11:47:41.341Z,100259.16
2022-09-26T11:50:20.471Z,100253.63
2022-09-26T11:53:11.447Z,100248.44
2022-09-26T11:55:41.583Z,100249.28
2022-09-26T11:58:07.493Z,100250.25
2022-09-26T12:00:34.798Z,100248.59
2022-09-26T12:03:27.843Z,100255.91
2022-09-26T12:05:54.242Z,100254.34
2022-09-26T12:08:30.535Z,100251.81
2022-09-26T12:11:00.417Z,100239.53
2022-09-26T12:13:29.906Z,100234.34
2022-09-26T12:15:56.757Z,100243.47
2022-09-26T12:18:23.806Z,100248.84
2022-09-26T12:20:52.777Z,100239.25
2022-09-26T12:23:20.502Z,100241.75
2022-09-26T12:25:56.088Z,100231.06
2022-09-26T12:28:38.786Z,100222.91
2022-09-26T12:31:07.833Z,100214.03
2022-09-26T12:33:41.254Z,100219.22
2022-09-26T12:36:07.452Z,100204.00
2022-09-26T12:39:02.869Z,100209.22
2022-09-26T12:41:33.683Z,100216.28
2022-09-26T12:44:28.556Z,100213.59
2022-09-26T12:46:59.226Z,100212.59
2022-09-26T12:49:53.290Z,100207.81
2022-09-26T12:52:27.435Z,100198.66
2022-09-26T12:55:25.955Z,100197.38
2022-09-26T12:57:57.162Z,100180.91
2022-09-26T13:00:23.146Z,100191.34
2022-09-26T13:03:19.710Z,100191.75
2022-09-26T13:06:08.532Z,100195.97
2022-09-26T13:08:35.017Z,100191.34
2022-09-26T13:11:13.346Z,100195.28
2022-09-26T13:13:45.243Z,100196.69
2022-09-26T13:16:25.417Z,100192.19
2022-09-26T13:18:49.321Z,100192.03
2022-09-26T13:21:14.037Z,100179.06
2022-09-26T13:23:38.593Z,100190.91
2022-09-26T13:26:02.925Z,100185.25
2022-09-26T13:28:29.242Z,100177.22
2022-09-26T13:30:54.702Z,100185.09
2022-09-26T13:33:21.242Z,100195.69
2022-09-26T13:35:47.912Z,100186.81
2022-09-26T13:38:40.324Z,100187.66
2022-09-26T13:41:08.740Z,100183.25
2022-09-26T13:43:44.430Z,100182.72
2022-09-26T13:46:14.380Z,100164.66
2022-09-26T13:48:42.593Z,100173.13
2022-09-26T13:51:18.134Z,100167.91
2022-09-26T13:53:43.182Z,100169.03
2022-09-26T13:56:50.981Z,100160.31
2022-09-26T13:59:39.946Z,100155.91
2022-09-26T14:02:21.869Z,100146.47
2022-09-26T14:04:46.716Z,100147.03
2022-09-26T14:07:34.497Z,100153.22
2022-09-26T14:10:05.129Z,100154.38
2022-09-26T14:12:34.282Z,100142.81
2022-09-26T14:15:17.177Z,100150.88
2022-09-26T14:18:04.352Z,100150.88
2022-09-26T14:20:29.800Z,100135.75
2022-09-26T14:22:54.038Z,100151.84
2022-09-26T14:25:50.475Z,100150.16
2022-09-26T14:28:22.285Z,100150.16
2022-09-26T14:31:12.835Z,100139.00
2022-09-26T14:33:36.118Z,100136.03
2022-09-26T14:36:28.419Z,100146.91
2022-09-26T14:38:51.673Z,100140.00
2022-09-26T14:41:18.238Z,100125.91
2022-09-26T14:43:41.505Z,100121.13
2022-09-26T14:46:05.819Z,100121.97
2022-09-26T14:48:33.754Z,100122.09
2022-09-26T14:51:00.210Z,100121.97
2022-09-26T14:53:34.057Z,100130.84
2022-09-26T14:55:59.595Z,100127.72
2022-09-26T14:58:48.335Z,100131.84
2022-09-26T15:01:15.191Z,100129.28
2022-09-26T15:03:38.521Z,100133.78
2022-09-26T15:06:03.234Z,100118.72
2022-09-26T15:08:28.450Z,100114.50
2022-09-26T15:10:51.727Z,100126.88
2022-09-26T15:13:28.078Z,100123.38
2022-09-26T15:15:57.700Z,100137.75
2022-09-26T15:18:30.654Z,100131.56
2022-09-26T15:21:01.854Z,100142.97
2022-09-26T15:23:29.731Z,100142.56
2022-09-26T15:25:56.387Z,100136.19
2022-09-26T15:28:19.702Z,100127.44
2022-09-26T15:30:43.072Z,100132.97
2022-09-26T15:33:07.439Z,100117.72
2022-09-26T15:35:30.882Z,100119.56
2022-09-26T15:37:58.108Z,100112.66
2022-09-26T15:40:24.098Z,100116.34
2022-09-26T15:42:58.373Z,100107.47
2022-09-26T15:45:29.852Z,100120.97
2022-09-26T15:47:53.254Z,100107.59
2022-09-26T15:50:22.625Z,100116.63
2022-09-26T15:52:47.332Z,100126.47
2022-09-26T15:55:10.945Z,100124.66
2022-09-26T15:57:35.671Z,100115.91
2022-09-26T15:59:59.413Z,100114.06
2022-09-26T16:02:23.911Z,100107.03
2022-09-26T16:04:47.019Z,100106.34
2022-09-26T16:07:19.068Z,100111.81
2022-09-26T16:09:43.436Z,100118.84
2022-09-26T16:12:11.598Z,100103.78
2022-09-26T16:14:41.623Z,100109.00
2022-09-26T16:17:13.792Z,100097.75
2022-09-26T16:19:37.234Z,100116.19
2022-09-26T16:22:00.520Z,100106.91
2022-09-26T16:24:30.390Z,100126.06
2022-09-26T16:26:54.348Z,100115.50
2022-09-26T16:29:29.802Z,100121.69
2022-09-26T16:31:54.993Z,100119.16
2022-09-26T16:34:21.210Z,100098.44
2022-09-26T16:36:44.885Z,100107.59
2022-09-26T16:39:08.839Z,100105.78
2022-09-26T16:44:28.999Z,100108.72
2022-09-26T16:46:58.864Z,100117.44
2022-09-26T16:49:46.910Z,100120.00
2022-09-26T16:52:12.126Z,100122.81
2022-09-26T16:54:35.426Z,100119.16
2022-09-26T16:56:58.695Z,100120.84
2022-09-26T16:59:23.887Z,100112.09
2022-09-26T17:01:54.619Z,100110.41
2022-09-26T17:04:20.325Z,100112.38
2022-09-26T17:06:43.671Z,100109.00
2022-09-26T17:09:14.671Z,100117.88
2022-09-26T17:11:38.046Z,100111.69
2022-09-26T17:14:01.319Z,100116.31
2022-09-26T17:16:24.639Z,100118.28
2022-09-26T17:18:47.967Z,100122.69
2022-09-26T17:21:13.250Z,100120.00
2022-09-26T17:23:41.519Z,100118.28
2022-09-26T17:26:06.241Z,100125.63
2022-09-26T17:28:32.234Z,100119.28
2022-09-26T17:30:57.277Z,100115.91
2022-09-26T17:33:20.702Z,100108.72
2022-09-26T17:35:44.039Z,100109.56
2022-09-26T17:38:11.907Z,100120.28
2022-09-26T17:40:35.229Z,100111.69
2022-09-26T17:43:00.202Z,100109.97
2022-09-26T17:45:23.802Z,100104.78
2022-09-26T17:47:47.162Z,100117.16
2022-09-26T17:50:11.842Z,100109.00
2022-09-26T17:52:35.134Z,100096.59
2022-09-26T17:55:01.426Z,100088.56
2022-09-26T17:57:25.647Z,100080.69
2022-09-26T17:59:51.882Z,100076.16
2022-09-26T18:02:18.404Z,100081.41
2022-09-26T18:04:41.953Z,100083.34
2022-09-26T18:07:05.554Z,100086.19
2022-09-26T18:09:30.107Z,100089.81
2022-09-26T18:12:00.609Z,100089.72
2022-09-26T18:14:23.974Z,100083.88
2022-09-26T18:16:47.307Z,100086.16
2022-09-26T18:19:10.963Z,100080.34
2022-09-26T18:21:34.353Z,100077.69
2022-09-26T18:23:58.982Z,100073.44
2022-09-26T18:26:23.957Z,100071.63
2022-09-26T18:28:48.717Z,100078.69
2022-09-26T18:31:12.402Z,100073.31
2022-09-26T18:33:38.014Z,100075.72
2022-09-26T18:36:01.575Z,100078.28
2022-09-26T18:38:24.879Z,100074.59
2022-09-26T18:40:50.469Z,100074.47
2022-09-26T18:43:15.566Z,100076.03
2022-09-26T18:45:40.231Z,100073.38
2022-09-26T18:48:05.407Z,100071.25
2022-09-26T18:50:34.330Z,100057.56
2022-09-26T18:52:57.585Z,100066.84
2022-09-26T18:55:39.098Z,100063.91
2022-09-26T18:58:19.924Z,100063.91
2022-09-26T19:00:45.979Z,100066.44
2022-09-26T19:03:09.315Z,100054.63
2022-09-26T19:05:32.615Z,100051.78
2022-09-26T19:07:57.264Z,100037.56
2022-09-26T19:10:21.089Z,100035.88
2022-09-26T19:12:44.517Z,100036.00
2022-09-26T19:15:14.185Z,100041.34
2022-09-26T19:17:38.948Z,100032.59
2022-09-26T19:20:02.440Z,100027.25
2022-09-26T19:22:26.233Z,100026.41
2022-09-26T19:24:50.396Z,100023.88
2022-09-26T19:27:15.070Z,100009.63
2022-09-26T19:29:40.377Z,100023.44
2022-09-26T19:32:04.131Z,100016.56
2022-09-26T19:34:32.476Z,100017.66
2022-09-26T19:36:56.233Z,100017.66
2022-09-26T19:39:19.868Z,100012.31
2022-09-26T19:41:43.265Z,100010.19
2022-09-26T19:44:07.341Z,99995.41
2022-09-26T19:46:30.816Z,99990.19
2022-09-26T19:48:54.299Z,99988.34
2022-09-26T19:51:19.005Z,99980.47
2022-09-26T19:53:42.363Z,99979.63
2022-09-26T19:56:05.964Z,99974.28
2022-09-26T19:58:29.318Z,99974.56
2022-09-26T20:00:53.570Z,99985.41
2022-09-26T20:03:17.989Z,99982.72
2022-09-26T20:05:41.078Z,99975.56
2022-09-26T20:08:06.563Z,99971.75
2022-09-26T20:10:29.835Z,99981.03
2022-09-26T20:12:53.841Z,99979.19
2022-09-26T20:15:18.094Z,99975.97
2022-09-26T20:17:41.454Z,99974.28
2022-09-26T20:20:05.374Z,99973.84
2022-09-26T20:22:28.632Z,99968.50
2022-09-26T20:24:54.966Z,99970.22
2022-09-26T20:27:19.049Z,99973.56
2022-09-26T20:29:59.910Z,99964.69
2022-09-26T20:32:23.194Z,99971.88
2022-09-26T20:34:46.557Z,99968.38
2022-09-26T20:37:10.283Z,99967.53
2022-09-26T20:39:33.653Z,99955.81
2022-09-26T20:41:58.299Z,99963.97
2022-09-26T20:44:23.609Z,99958.78
2022-09-26T20:46:49.982Z,99949.38
2022-09-26T20:49:16.285Z,99940.22
2022-09-26T20:51:39.884Z,99935.00
2022-09-26T20:54:03.308Z,99938.22
2022-09-26T20:56:26.684Z,99938.78
2022-09-26T20:58:51.396Z,99924.44
2022-09-26T21:01:15.043Z,99928.06
2022-09-26T21:03:42.473Z,99925.69
2022-09-26T21:06:12.313Z,99924.84
2022-09-26T21:08:35.600Z,99923.84
2022-09-26T21:10:59.667Z,99916.41
2022-09-26T21:13:22.914Z,99909.22
2022-09-26T21:15:47.640Z,99919.34
2022-09-26T21:18:13.315Z,99899.91
2022-09-26T21:20:36.693Z,99894.28
2022-09-26T21:23:01.270Z,99887.09
2022-09-26T21:25:24.543Z,99886.94
2022-09-26T21:27:48.813Z,99892.72
2022-09-26T21:30:15.730Z,99883.56
2022-09-26T21:32:41.322Z,99884.69
2022-09-26T21:35:04.650Z,99886.25
2022-09-26T21:37:28.078Z,99880.72
2022-09-26T21:39:51.388Z,99872.56
2022-09-26T21:42:14.754Z,99884.28
2022-09-26T21:44:39.250Z,99884.97
2022-09-26T21:47:02.266Z,99867.91
2022-09-26T21:49:27.090Z,99871.56
2022-09-26T21:51:52.759Z,99863.69
2022-09-26T21:54:20.332Z,99860.03
2022-09-26T21:56:48.777Z,99867.91
2022-09-26T21:59:12.157Z,99859.03
2022-09-26T22:01:35.541Z,99860.19
2022-09-26T22:03:58.860Z,99845.25
2022-09-26T22:06:23.573Z,99840.19
2022-09-26T22:08:46.846Z,99842.41
2022-09-26T22:11:10.327Z,99837.91
2022-09-26T22:13:34.197Z,99838.34
2022-09-26T22:15:57.991Z,99844.25
2022-09-26T22:18:21.306Z,99837.63
2022-09-26T22:20:44.613Z,99848.88
2022-09-26T22:23:09.393Z,99833.72
2022-09-26T22:25:32.766Z,99833.44
2022-09-26T22:27:56.089Z,99834.81
2022-09-26T22:30:19.571Z,99833.09
2022-09-26T22:32:42.828Z,99836.22
2022-09-26T22:35:07.126Z,99839.63
2022-09-26T22:37:30.738Z,99838.63
2022-09-26T22:39:55.463Z,99825.41
2022-09-26T22:42:18.736Z,99823.56
2022-09-26T22:44:42.073Z,99826.38
2022-09-26T22:47:05.651Z,99819.91
2022-09-26T22:49:28.995Z,99820.03
2022-09-26T22:51:52.317Z,99821.56
2022-09-26T22:54:15.609Z,99816.47
2022-09-26T22:56:40.265Z,99812.84
2022-09-26T22:59:04.129Z,99818.50
2022-09-26T23:01:29.115Z,99816.78
2022-09-26T23:03:53.147Z,99816.94
2022-09-26T23:06:16.453Z,99811.75
2022-09-26T23:08:39.773Z,99813.72
2022-09-26T23:11:03.269Z,99809.06
2022-09-26T23:13:28.060Z,99808.06
2022-09-26T23:15:51.370Z,99808.91
2022-09-26T23:18:14.683Z,99811.63
2022-09-26T23:20:39.383Z,99812.16
2022-09-26T23:23:02.773Z,99804.56
2022-09-26T23:25:26.098Z,99808.22
2022-09-26T23:27:50.350Z,99801.59
2022-09-26T23:30:15.430Z,99796.53
2022-09-26T23:32:38.686Z,99789.91
2022-09-26T23:35:02.079Z,99780.72
2022-09-26T23:37:25.355Z,99787.22
2022-09-26T23:39:48.614Z,99780.88
2022-09-26T23:42:12.056Z,99758.16
2022-09-26T23:44:36.373Z,99758.63
2022-09-26T23:47:02.677Z,99754.81
2022-09-26T23:49:25.967Z,99737.22
2022-09-26T23:51:49.257Z,99734.22
2022-09-26T23:54:12.569Z,99746.78
2022-09-26T23:56:35.886Z,99737.38
2022-09-26T23:58:59.170Z,99734.44
